sensor_id;sensor_type;location;lat;lon;timestamp;pressure;altitude;pressure_sealevel;temperature;humidity
28630;BME280;15817;42.130;24.762;2022-11-25T00:01:11;99488.38;;;9.81;71.40
28630;BME280;15817;42.130;24.762;2022-11-25T00:03:38;99486.66;;;9.80;71.25
28630;BME280;15817;42.130;24.762;2022-11-25T00:08:37;99478.69;;;9.77;71.40
28630;BME280;15817;42.130;24.762;2022-11-25T00:11:04;99497.22;;;9.81;71.43
28630;BME280;15817;42.130;24.762;2022-11-25T00:13:31;99500.81;;;9.80;71.70
28630;BME280;15817;42.130;24.762;2022-11-25T00:16:03;99490.22;;;9.76;71.76
28630;BME280;15817;42.130;24.762;2022-11-25T00:18:32;99492.84;;;9.79;71.64
28630;BME280;15817;42.130;24.762;2022-11-25T00:21:03;99496.41;;;9.75;71.42
28630;BME280;15817;42.130;24.762;2022-11-25T00:23:29;99494.56;;;9.81;71.51
28630;BME280;15817;42.130;24.762;2022-11-25T00:25:55;99499.00;;;9.82;70.66
28630;BME280;15817;42.130;24.762;2022-11-25T00:28:21;99501.72;;;9.76;71.19
28630;BME280;15817;42.130;24.762;2022-11-25T00:30:54;99508.72;;;9.82;71.21
28630;BME280;15817;42.130;24.762;2022-11-25T00:33:20;99505.19;;;9.83;71.53
28630;BME280;15817;42.130;24.762;2022-11-25T00:35:51;99499.94;;;9.78;71.99
28630;BME280;15817;42.130;24.762;2022-11-25T00:38:17;99516.69;;;9.85;71.20
28630;BME280;15817;42.130;24.762;2022-11-25T00:40:44;99504.31;;;9.82;71.40
28630;BME280;15817;42.130;24.762;2022-11-25T00:43:31;99490.19;;;9.77;71.29
28630;BME280;15817;42.130;24.762;2022-11-25T00:46:15;99500.81;;;9.77;71.31
28630;BME280;15817;42.130;24.762;2022-11-25T00:48:43;99497.28;;;9.78;71.11
28630;BME280;15817;42.130;24.762;2022-11-25T00:51:14;99514.09;;;9.80;70.99
28630;BME280;15817;42.130;24.762;2022-11-25T00:53:40;99498.16;;;9.77;70.51
28630;BME280;15817;42.130;24.762;2022-11-25T00:56:05;99509.59;;;9.82;70.58
28630;BME280;15817;42.130;24.762;2022-11-25T00:58:41;99503.47;;;9.79;70.11
28630;BME280;15817;42.130;24.762;2022-11-25T01:01:08;99507.91;;;9.78;70.00
28630;BME280;15817;42.130;24.762;2022-11-25T01:03:34;99515.81;;;9.81;69.97
28630;BME280;15817;42.130;24.762;2022-11-25T01:06:05;99515.81;;;9.85;69.84
28630;BME280;15817;42.130;24.762;2022-11-25T01:08:45;99498.16;;;9.79;69.52
28630;BME280;15817;42.130;24.762;2022-11-25T01:11:13;99513.13;;;9.86;69.11
28630;BME280;15817;42.130;24.762;2022-11-25T01:13:39;99516.69;;;9.82;68.97
28630;BME280;15817;42.130;24.762;2022-11-25T01:16:13;99511.38;;;9.85;68.59
28630;BME280;15817;42.130;24.762;2022-11-25T01:18:45;99506.97;;;9.81;68.81
28630;BME280;15817;42.130;24.762;2022-11-25T01:21:25;99522.88;;;9.87;68.57
28630;BME280;15817;42.130;24.762;2022-11-25T01:23:53;99514.91;;;9.84;68.34
28630;BME280;15817;42.130;24.762;2022-11-25T01:26:22;99527.31;;;9.84;68.78
28630;BME280;15817;42.130;24.762;2022-11-25T01:28:52;99511.38;;;9.82;68.07
28630;BME280;15817;42.130;24.762;2022-11-25T01:31:23;99503.50;;;9.74;68.38
28630;BME280;15817;42.130;24.762;2022-11-25T01:34:00;99514.97;;;9.78;68.19
28630;BME280;15817;42.130;24.762;2022-11-25T01:36:34;99527.31;;;9.82;68.50
28630;BME280;15817;42.130;24.762;2022-11-25T01:39:02;99511.44;;;9.77;68.63
28630;BME280;15817;42.130;24.762;2022-11-25T01:41:30;99519.41;;;9.80;68.41
28630;BME280;15817;42.130;24.762;2022-11-25T01:44:14;99508.78;;;9.77;68.74
28630;BME280;15817;42.130;24.762;2022-11-25T01:49:47;99521.19;;;9.78;68.58
28630;BME280;15817;42.130;24.762;2022-11-25T01:52:22;99525.59;;;9.79;68.19
28630;BME280;15817;42.130;24.762;2022-11-25T01:55:08;99526.47;;;9.80;68.57
28630;BME280;15817;42.130;24.762;2022-11-25T01:57:46;99514.13;;;9.70;68.48
28630;BME280;15817;42.130;24.762;2022-11-25T02:00:13;99529.16;;;9.77;68.83
28630;BME280;15817;42.130;24.762;2022-11-25T02:02:49;99534.47;;;9.74;68.95
28630;BME280;15817;42.130;24.762;2022-11-25T02:05:24;99526.59;;;9.66;68.91
28630;BME280;15817;42.130;24.762;2022-11-25T02:07:56;99522.16;;;9.68;69.37
28630;BME280;15817;42.130;24.762;2022-11-25T02:13:59;99535.38;;;9.74;69.70
28630;BME280;15817;42.130;24.762;2022-11-25T02:16:26;99530.13;;;9.68;69.92
28630;BME280;15817;42.130;24.762;2022-11-25T02:19:00;99524.81;;;9.67;69.66
28630;BME280;15817;42.130;24.762;2022-11-25T02:21:49;99530.13;;;9.68;69.73
28630;BME280;15817;42.130;24.762;2022-11-25T02:24:24;99547.75;;;9.74;69.87
28630;BME280;15817;42.130;24.762;2022-11-25T02:26:53;99532.78;;;9.68;69.92
28630;BME280;15817;42.130;24.762;2022-11-25T02:29:22;99523.94;;;9.65;70.00
28630;BME280;15817;42.130;24.762;2022-11-25T02:31:49;99535.38;;;9.70;70.06
28630;BME280;15817;42.130;24.762;2022-11-25T02:34:23;99534.50;;;9.71;69.76
28630;BME280;15817;42.130;24.762;2022-11-25T02:36:51;99523.03;;;9.66;69.70
28630;BME280;15817;42.130;24.762;2022-11-25T02:39:23;99525.66;;;9.70;69.68
28630;BME280;15817;42.130;24.762;2022-11-25T02:41:52;99535.38;;;9.70;69.52
28630;BME280;15817;42.130;24.762;2022-11-25T02:44:19;99534.50;;;9.69;69.23
28630;BME280;15817;42.130;24.762;2022-11-25T02:46:46;99522.97;;;9.72;69.63
28630;BME280;15817;42.130;24.762;2022-11-25T02:49:12;99528.31;;;9.70;69.10
28630;BME280;15817;42.130;24.762;2022-11-25T02:51:43;99530.06;;;9.73;69.05
28630;BME280;15817;42.130;24.762;2022-11-25T02:54:13;99535.38;;;9.73;68.91
28630;BME280;15817;42.130;24.762;2022-11-25T02:56:40;99533.59;;;9.73;68.89
28630;BME280;15817;42.130;24.762;2022-11-25T02:59:07;99538.09;;;9.68;68.56
28630;BME280;15817;42.130;24.762;2022-11-25T03:01:34;99544.22;;;9.73;68.41
28630;BME280;15817;42.130;24.762;2022-11-25T03:04:04;99534.53;;;9.68;68.38
28630;BME280;15817;42.130;24.762;2022-11-25T03:06:30;99538.91;;;9.75;68.10
28630;BME280;15817;42.130;24.762;2022-11-25T03:08:59;99521.28;;;9.68;68.23
28630;BME280;15817;42.130;24.762;2022-11-25T03:11:26;99537.13;;;9.77;68.04
28630;BME280;15817;42.130;24.762;2022-11-25T03:14:12;99535.34;;;9.77;67.85
28630;BME280;15817;42.130;24.762;2022-11-25T03:16:38;99531.84;;;9.72;68.01
28630;BME280;15817;42.130;24.762;2022-11-25T03:19:08;99546.88;;;9.76;67.98
28630;BME280;15817;42.130;24.762;2022-11-25T03:21:34;99530.06;;;9.70;67.78
28630;BME280;15817;42.130;24.762;2022-11-25T03:24:00;99539.78;;;9.74;67.89
28630;BME280;15817;42.130;24.762;2022-11-25T03:26:26;99530.94;;;9.73;67.77
28630;BME280;15817;42.130;24.762;2022-11-25T03:28:55;99538.91;;;9.75;67.78
28630;BME280;15817;42.130;24.762;2022-11-25T03:31:56;99541.53;;;9.78;67.89
28630;BME280;15817;42.130;24.762;2022-11-25T03:34:32;99523.88;;;9.69;68.25
28630;BME280;15817;42.130;24.762;2022-11-25T03:36:58;99528.28;;;9.72;67.64
28630;BME280;15817;42.130;24.762;2022-11-25T03:39:29;99539.78;;;9.74;67.69
28630;BME280;15817;42.130;24.762;2022-11-25T03:41:55;99544.22;;;9.73;67.99
28630;BME280;15817;42.130;24.762;2022-11-25T03:44:24;99538.91;;;9.73;67.64
28630;BME280;15817;42.130;24.762;2022-11-25T03:47:00;99558.38;;;9.74;67.52
28630;BME280;15817;42.130;24.762;2022-11-25T03:49:26;99543.41;;;9.68;67.72
28630;BME280;15817;42.130;24.762;2022-11-25T03:51:58;99551.31;;;9.70;67.51
28630;BME280;15817;42.130;24.762;2022-11-25T03:57:45;99561.03;;;9.74;67.21
28630;BME280;15817;42.130;24.762;2022-11-25T04:00:11;99551.31;;;9.71;67.71
28630;BME280;15817;42.130;24.762;2022-11-25T04:03:00;99566.34;;;9.77;67.36
28630;BME280;15817;42.130;24.762;2022-11-25T04:05:31;99562.78;;;9.76;67.42
28630;BME280;15817;42.130;24.762;2022-11-25T04:08:02;99558.38;;;9.74;67.68
28630;BME280;15817;42.130;24.762;2022-11-25T04:10:29;99559.31;;;9.68;67.63
28630;BME280;15817;42.130;24.762;2022-11-25T04:12:57;99570.78;;;9.75;67.40
28630;BME280;15817;42.130;24.762;2022-11-25T04:15:31;99566.34;;;9.74;68.06
28630;BME280;15817;42.130;24.762;2022-11-25T04:18:01;99574.31;;;9.75;67.45
28630;BME280;15817;42.130;24.762;2022-11-25T04:20:27;99570.78;;;9.72;67.12
28630;BME280;15817;42.130;24.762;2022-11-25T04:23:02;99584.94;;;9.72;67.07
28630;BME280;15817;42.130;24.762;2022-11-25T04:25:28;99578.75;;;9.72;66.97
28630;BME280;15817;42.130;24.762;2022-11-25T04:27:57;99577.00;;;9.69;66.74
28630;BME280;15817;42.130;24.762;2022-11-25T04:30:32;99584.91;;;9.77;66.33
28630;BME280;15817;42.130;24.762;2022-11-25T04:33:00;99584.94;;;9.72;67.15
28630;BME280;15817;42.130;24.762;2022-11-25T04:35:26;99589.38;;;9.73;66.74
28630;BME280;15817;42.130;24.762;2022-11-25T04:37:55;99577.88;;;9.71;67.10
28630;BME280;15817;42.130;24.762;2022-11-25T04:40:22;99599.09;;;9.74;67.05
28630;BME280;15817;42.130;24.762;2022-11-25T04:43:03;99575.25;;;9.68;67.21
28630;BME280;15817;42.130;24.762;2022-11-25T04:45:38;99600.00;;;9.70;66.91
28630;BME280;15817;42.130;24.762;2022-11-25T04:48:04;99586.78;;;9.67;66.94
28630;BME280;15817;42.130;24.762;2022-11-25T04:50:33;99598.22;;;9.74;67.03
28630;BME280;15817;42.130;24.762;2022-11-25T04:53:10;99589.41;;;9.69;67.07
28630;BME280;15817;42.130;24.762;2022-11-25T04:55:39;99600.88;;;9.71;66.98
28630;BME280;15817;42.130;24.762;2022-11-25T04:58:10;99598.22;;;9.69;66.92
28630;BME280;15817;42.130;24.762;2022-11-25T05:00:41;99600.88;;;9.71;67.05
28630;BME280;15817;42.130;24.762;2022-11-25T05:03:09;99602.66;;;9.70;67.42
28630;BME280;15817;42.130;24.762;2022-11-25T05:05:37;99613.28;;;9.73;67.48
28630;BME280;15817;42.130;24.762;2022-11-25T05:08:04;99619.47;;;9.74;67.82
28630;BME280;15817;42.130;24.762;2022-11-25T05:10:32;99608.84;;;9.69;67.68
28630;BME280;15817;42.130;24.762;2022-11-25T05:12:58;99625.72;;;9.68;67.62
28630;BME280;15817;42.130;24.762;2022-11-25T05:15:26;99629.25;;;9.69;67.69
28630;BME280;15817;42.130;24.762;2022-11-25T05:17:54;99616.88;;;9.65;67.53
28630;BME280;15817;42.130;24.762;2022-11-25T05:20:36;99639.84;;;9.70;67.41
28630;BME280;15817;42.130;24.762;2022-11-25T05:23:02;99648.69;;;9.71;67.29
28630;BME280;15817;42.130;24.762;2022-11-25T05:25:31;99639.88;;;9.69;66.57
28630;BME280;15817;42.130;24.762;2022-11-25T05:31:47;99640.72;;;9.72;66.12
28630;BME280;15817;42.130;24.762;2022-11-25T05:34:14;99636.28;;;9.70;66.14
28630;BME280;15817;42.130;24.762;2022-11-25T05:36:53;99642.53;;;9.67;65.83
28630;BME280;15817;42.130;24.762;2022-11-25T05:39:58;99652.25;;;9.68;66.07
28630;BME280;15817;42.130;24.762;2022-11-25T05:43:45;99679.66;;;9.78;66.22
28630;BME280;15817;42.130;24.762;2022-11-25T05:46:50;99686.72;;;9.77;66.42
28630;BME280;15817;42.130;24.762;2022-11-25T05:49:36;99677.00;;;9.70;66.68
28630;BME280;15817;42.130;24.762;2022-11-25T05:52:23;99676.13;;;9.70;66.88
28630;BME280;15817;42.130;24.762;2022-11-25T05:55:12;99694.69;;;9.77;66.81
28630;BME280;15817;42.130;24.762;2022-11-25T05:58:16;99697.38;;;9.70;67.26
28630;BME280;15817;42.130;24.762;2022-11-25T06:01:19;99701.78;;;9.74;67.30
28630;BME280;15817;42.130;24.762;2022-11-25T06:03:54;99709.75;;;9.77;67.18
28630;BME280;15817;42.130;24.762;2022-11-25T06:06:23;99710.63;;;9.76;67.08
28630;BME280;15817;42.130;24.762;2022-11-25T06:09:36;99704.44;;;9.72;67.19
28630;BME280;15817;42.130;24.762;2022-11-25T06:12:05;99723.88;;;9.82;67.22
28630;BME280;15817;42.130;24.762;2022-11-25T06:14:36;99724.75;;;9.81;67.39
28630;BME280;15817;42.130;24.762;2022-11-25T06:17:04;99717.72;;;9.78;67.49
28630;BME280;15817;42.130;24.762;2022-11-25T06:19:38;99731.88;;;9.80;67.36
28630;BME280;15817;42.130;24.762;2022-11-25T06:22:07;99716.84;;;9.75;68.04
28630;BME280;15817;42.130;24.762;2022-11-25T06:24:36;99724.75;;;9.81;67.72
28630;BME280;15817;42.130;24.762;2022-11-25T06:27:05;99748.66;;;9.84;67.75
28630;BME280;15817;42.130;24.762;2022-11-25T06:29:32;99741.63;;;9.80;67.84
28630;BME280;15817;42.130;24.762;2022-11-25T06:32:06;99763.69;;;9.88;67.28
28630;BME280;15817;42.130;24.762;2022-11-25T06:34:39;99753.06;;;9.87;67.44
28630;BME280;15817;42.130;24.762;2022-11-25T06:37:14;99768.13;;;9.86;67.46
28630;BME280;15817;42.130;24.762;2022-11-25T06:39:39;99766.34;;;9.87;67.31
28630;BME280;15817;42.130;24.762;2022-11-25T06:42:08;99760.16;;;9.85;68.05
28630;BME280;15817;42.130;24.762;2022-11-25T06:44:34;99775.22;;;9.89;68.91
28630;BME280;15817;42.130;24.762;2022-11-25T06:47:00;99769.00;;;9.91;67.20
28630;BME280;15817;42.130;24.762;2022-11-25T06:49:26;99777.81;;;9.96;67.23
28630;BME280;15817;42.130;24.762;2022-11-25T06:51:53;99784.00;;;9.97;66.84
28630;BME280;15817;42.130;24.762;2022-11-25T06:54:19;99785.78;;;9.96;66.53
28630;BME280;15817;42.130;24.762;2022-11-25T06:56:50;99776.94;;;9.94;66.63
28630;BME280;15817;42.130;24.762;2022-11-25T06:59:19;99797.28;;;10.01;66.25
28630;BME280;15817;42.130;24.762;2022-11-25T07:01:54;99798.19;;;10.00;66.04
28630;BME280;15817;42.130;24.762;2022-11-25T07:04:26;99799.06;;;10.01;66.41
28630;BME280;15817;42.130;24.762;2022-11-25T07:06:53;99807.00;;;10.04;66.18
28630;BME280;15817;42.130;24.762;2022-11-25T07:09:21;99813.25;;;9.95;66.11
28630;BME280;15817;42.130;24.762;2022-11-25T07:11:55;99799.97;;;9.95;66.23
28630;BME280;15817;42.130;24.762;2022-11-25T07:14:22;99814.13;;;10.02;66.44
28630;BME280;15817;42.130;24.762;2022-11-25T07:16:50;99805.28;;;9.97;67.42
28630;BME280;15817;42.130;24.762;2022-11-25T07:19:17;99815.00;;;9.99;67.92
28630;BME280;15817;42.130;24.762;2022-11-25T07:21:49;99815.91;;;9.97;67.63
28630;BME280;15817;42.130;24.762;2022-11-25T07:24:16;99812.34;;;9.96;67.74
28630;BME280;15817;42.130;24.762;2022-11-25T07:26:45;99813.25;;;9.94;67.47
28630;BME280;15817;42.130;24.762;2022-11-25T07:29:22;99806.16;;;9.93;67.53
28630;BME280;15817;42.130;24.762;2022-11-25T07:31:49;99837.16;;;9.95;67.49
28630;BME280;15817;42.130;24.762;2022-11-25T07:34:19;99819.47;;;9.90;67.53
28630;BME280;15817;42.130;24.762;2022-11-25T07:36:47;99839.81;;;9.97;67.25
28630;BME280;15817;42.130;24.762;2022-11-25T07:39:18;99844.22;;;9.98;67.45
28630;BME280;15817;42.130;24.762;2022-11-25T07:41:45;99842.47;;;10.00;67.69
28630;BME280;15817;42.130;24.762;2022-11-25T07:44:14;99838.03;;;9.97;67.84
28630;BME280;15817;42.130;24.762;2022-11-25T07:46:48;99849.53;;;10.02;67.14
28630;BME280;15817;42.130;24.762;2022-11-25T07:49:16;99822.09;;;9.96;67.24
28630;BME280;15817;42.130;24.762;2022-11-25T07:51:51;99855.75;;;10.01;66.81
28630;BME280;15817;42.130;24.762;2022-11-25T07:54:22;99858.38;;;10.04;66.90
28630;BME280;15817;42.130;24.762;2022-11-25T07:56:49;99857.47;;;10.07;66.86
28630;BME280;15817;42.130;24.762;2022-11-25T07:59:20;99853.03;;;10.06;66.41
28630;BME280;15817;42.130;24.762;2022-11-25T08:01:54;99861.00;;;10.09;66.35
28630;BME280;15817;42.130;24.762;2022-11-25T08:04:21;99855.69;;;10.13;66.52
28630;BME280;15817;42.130;24.762;2022-11-25T08:06:49;99862.78;;;10.11;65.88
28630;BME280;15817;42.130;24.762;2022-11-25T08:09:20;99861.91;;;10.14;66.12
28630;BME280;15817;42.130;24.762;2022-11-25T08:11:49;99866.31;;;10.20;65.44
28630;BME280;15817;42.130;24.762;2022-11-25T08:14:41;99869.84;;;10.22;65.62
28630;BME280;15817;42.130;24.762;2022-11-25T08:17:10;99870.72;;;10.17;65.33
28630;BME280;15817;42.130;24.762;2022-11-25T08:22:31;99880.47;;;10.23;65.57
28630;BME280;15817;42.130;24.762;2022-11-25T08:25:03;99888.47;;;10.23;65.80
28630;BME280;15817;42.130;24.762;2022-11-25T08:27:29;99868.97;;;10.12;65.63
28630;BME280;15817;42.130;24.762;2022-11-25T08:29:57;99877.81;;;10.15;65.72
28630;BME280;15817;42.130;24.762;2022-11-25T08:32:23;99876.06;;;10.19;65.76
28630;BME280;15817;42.130;24.762;2022-11-25T08:34:54;99868.97;;;10.26;65.88
28630;BME280;15817;42.130;24.762;2022-11-25T08:37:23;99872.47;;;10.32;65.10
28630;BME280;15817;42.130;24.762;2022-11-25T08:39:59;99880.38;;;10.46;65.37
28630;BME280;15817;42.130;24.762;2022-11-25T08:42:28;99872.41;;;10.47;64.82
28630;BME280;15817;42.130;24.762;2022-11-25T08:50:26;99861.53;;;10.81;62.81
28630;BME280;15817;42.130;24.762;2022-11-25T08:52:55;99865.91;;;10.86;61.73
28630;BME280;15817;42.130;24.762;2022-11-25T08:55:22;99862.34;;;10.94;61.15
28630;BME280;15817;42.130;24.762;2022-11-25T08:57:51;99859.63;;;10.97;59.86
28630;BME280;15817;42.130;24.762;2022-11-25T09:00:19;99876.44;;;11.06;59.72
28630;BME280;15817;42.130;24.762;2022-11-25T09:02:45;99860.44;;;11.08;58.95
28630;BME280;15817;42.130;24.762;2022-11-25T09:05:14;99864.81;;;11.16;58.57
28630;BME280;15817;42.130;24.762;2022-11-25T09:07:44;99865.59;;;11.31;57.96
28630;BME280;15817;42.130;24.762;2022-11-25T09:10:15;99865.50;;;11.37;57.54
28630;BME280;15817;42.130;24.762;2022-11-25T09:12:45;99851.25;;;11.42;56.80
28630;BME280;15817;42.130;24.762;2022-11-25T09:15:16;99876.94;;;11.48;55.93
28630;BME280;15817;42.130;24.762;2022-11-25T09:17:42;99855.63;;;11.48;56.19
28630;BME280;15817;42.130;24.762;2022-11-25T09:20:09;99857.44;;;11.46;56.60
28630;BME280;15817;42.130;24.762;2022-11-25T09:22:35;99858.28;;;11.49;56.25
28630;BME280;15817;42.130;24.762;2022-11-25T09:25:01;99860.88;;;11.57;55.84
28630;BME280;15817;42.130;24.762;2022-11-25T09:27:31;99857.19;;;11.70;55.62
28630;BME280;15817;42.130;24.762;2022-11-25T09:29:59;99866.94;;;11.73;54.55
28630;BME280;15817;42.130;24.762;2022-11-25T09:32:25;99873.19;;;11.69;54.33
28630;BME280;15817;42.130;24.762;2022-11-25T09:37:46;99873.28;;;11.59;53.95
28630;BME280;15817;42.130;24.762;2022-11-25T09:40:19;99871.47;;;11.63;53.87
28630;BME280;15817;42.130;24.762;2022-11-25T09:42:59;99859.97;;;11.56;53.26
28630;BME280;15817;42.130;24.762;2022-11-25T09:45:55;99879.47;;;11.61;53.19
28630;BME280;15817;42.130;24.762;2022-11-25T09:48:51;99866.19;;;11.57;53.26
28630;BME280;15817;42.130;24.762;2022-11-25T09:51:40;99873.19;;;11.66;52.84
28630;BME280;15817;42.130;24.762;2022-11-25T09:54:22;99881.06;;;11.84;52.50
28630;BME280;15817;42.130;24.762;2022-11-25T09:57:13;99855.28;;;11.87;52.15
28630;BME280;15817;42.130;24.762;2022-11-25T10:00:14;99850.75;;;11.92;52.45
28630;BME280;15817;42.130;24.762;2022-11-25T10:06:02;99857.72;;;12.03;52.39
28630;BME280;15817;42.130;24.762;2022-11-25T10:08:36;99851.50;;;12.05;52.24
28630;BME280;15817;42.130;24.762;2022-11-25T10:12:12;99853.91;;;12.25;52.17
28630;BME280;15817;42.130;24.762;2022-11-25T10:19:45;99836.19;;;12.22;51.56
28630;BME280;15817;42.130;24.762;2022-11-25T10:22:38;99832.66;;;12.17;51.07
28630;BME280;15817;42.130;24.762;2022-11-25T10:25:20;99838.09;;;12.11;51.48
28630;BME280;15817;42.130;24.762;2022-11-25T10:28:22;99842.38;;;12.23;50.25
28630;BME280;15817;42.130;24.762;2022-11-25T10:34:51;99838.69;;;12.33;49.80
28630;BME280;15817;42.130;24.762;2022-11-25T10:37:29;99840.53;;;12.28;49.78
28630;BME280;15817;42.130;24.762;2022-11-25T10:43:13;99836.06;;;12.28;49.83
28630;BME280;15817;42.130;24.762;2022-11-25T10:46:15;99822.63;;;12.34;50.00
28630;BME280;15817;42.130;24.762;2022-11-25T10:49:10;99822.59;;;12.39;49.92
28630;BME280;15817;42.130;24.762;2022-11-25T10:52:13;99838.47;;;12.47;49.82
28630;BME280;15817;42.130;24.762;2022-11-25T10:55:25;99833.22;;;12.42;49.88
28630;BME280;15817;42.130;24.762;2022-11-25T10:58:27;99840.19;;;12.52;50.27
28630;BME280;15817;42.130;24.762;2022-11-25T11:01:21;99842.84;;;12.54;50.26
28630;BME280;15817;42.130;24.762;2022-11-25T11:04:11;99840.22;;;12.49;49.36
28630;BME280;15817;42.130;24.762;2022-11-25T11:06:48;99837.53;;;12.51;50.07
28630;BME280;15817;42.130;24.762;2022-11-25T11:09:34;99851.75;;;12.51;49.43
28630;BME280;15817;42.130;24.762;2022-11-25T11:25:30;99848.88;;;12.66;49.63
28630;BME280;15817;42.130;24.762;2022-11-25T11:28:22;99840.78;;;12.71;49.56
28630;BME280;15817;42.130;24.762;2022-11-25T11:37:41;99838.94;;;12.76;49.93
28630;BME280;15817;42.130;24.762;2022-11-25T11:43:38;99849.47;;;12.85;49.70
28630;BME280;15817;42.130;24.762;2022-11-25T11:46:14;99849.47;;;12.87;49.61
28630;BME280;15817;42.130;24.762;2022-11-25T11:52:10;99854.81;;;12.85;49.98
28630;BME280;15817;42.130;24.762;2022-11-25T11:55:01;99862.88;;;12.82;49.24
28630;BME280;15817;42.130;24.762;2022-11-25T12:00:35;99855.81;;;12.78;49.50
28630;BME280;15817;42.130;24.762;2022-11-25T12:06:26;99857.47;;;12.85;48.91
28630;BME280;15817;42.130;24.762;2022-11-25T12:09:12;99860.88;;;12.95;49.39
28630;BME280;15817;42.130;24.762;2022-11-25T12:11:51;99849.41;;;12.90;48.81
28630;BME280;15817;42.130;24.762;2022-11-25T12:14:40;99865.25;;;13.02;48.41
28630;BME280;15817;42.130;24.762;2022-11-25T12:48:17;99900.31;;;12.79;49.42
28630;BME280;15817;42.130;24.762;2022-11-25T12:50:51;99911.78;;;12.83;49.28
28630;BME280;15817;42.130;24.762;2022-11-25T12:53:38;99900.31;;;12.79;48.86
28630;BME280;15817;42.130;24.762;2022-11-25T12:56:17;99917.16;;;12.81;48.97
28630;BME280;15817;42.130;24.762;2022-11-25T13:05:53;99926.03;;;12.83;49.65
28630;BME280;15817;42.130;24.762;2022-11-25T13:17:41;99915.47;;;12.74;49.01
28630;BME280;15817;42.130;24.762;2022-11-25T13:20:32;99931.44;;;12.79;49.49
28630;BME280;15817;42.130;24.762;2022-11-25T13:32:01;99937.75;;;12.72;50.58
28630;BME280;15817;42.130;24.762;2022-11-25T13:37:48;99931.63;;;12.65;50.39
28630;BME280;15817;42.130;24.762;2022-11-25T13:43:04;99945.91;;;12.61;50.32
28630;BME280;15817;42.130;24.762;2022-11-25T13:45:53;99938.84;;;12.57;50.12
28630;BME280;15817;42.130;24.762;2022-11-25T13:48:34;99953.94;;;12.58;50.66
28630;BME280;15817;42.130;24.762;2022-11-25T13:51:21;99975.28;;;12.58;51.02
28630;BME280;15817;42.130;24.762;2022-11-25T13:54:03;99954.06;;;12.49;51.40
28630;BME280;15817;42.130;24.762;2022-11-25T13:56:36;99968.34;;;12.45;51.04
28630;BME280;15817;42.130;24.762;2022-11-25T14:01:51;99969.31;;;12.38;51.47
28630;BME280;15817;42.130;24.762;2022-11-25T14:04:52;99986.13;;;12.44;52.22
28630;BME280;15817;42.130;24.762;2022-11-25T14:11:12;99985.31;;;12.38;52.36
28630;BME280;15817;42.130;24.762;2022-11-25T14:26:55;100008.66;;;12.17;52.71
28630;BME280;15817;42.130;24.762;2022-11-25T14:35:38;100007.06;;;11.98;53.08
28630;BME280;15817;42.130;24.762;2022-11-25T14:41:18;100025.75;;;11.96;53.83
28630;BME280;15817;42.130;24.762;2022-11-25T14:46:27;100031.09;;;11.92;53.38
28630;BME280;15817;42.130;24.762;2022-11-25T14:49:06;100022.31;;;11.82;53.74
28630;BME280;15817;42.130;24.762;2022-11-25T14:54:44;100013.44;;;11.79;53.57
28630;BME280;15817;42.130;24.762;2022-11-25T14:57:32;100013.50;;;11.71;53.50
28630;BME280;15817;42.130;24.762;2022-11-25T15:00:16;100017.03;;;11.73;53.78
28630;BME280;15817;42.130;24.762;2022-11-25T15:04:05;100026.78;;;11.74;53.59
28630;BME280;15817;42.130;24.762;2022-11-25T15:06:41;100022.44;;;11.61;53.22
28630;BME280;15817;42.130;24.762;2022-11-25T15:09:28;100023.34;;;11.61;53.32
28630;BME280;15817;42.130;24.762;2022-11-25T15:12:00;100024.25;;;11.57;53.46
28630;BME280;15817;42.130;24.762;2022-11-25T15:14:40;100030.53;;;11.50;53.16
28630;BME280;15817;42.130;24.762;2022-11-25T15:17:45;100020.75;;;11.49;53.66
28630;BME280;15817;42.130;24.762;2022-11-25T15:20:16;100031.44;;;11.46;53.66
28630;BME280;15817;42.130;24.762;2022-11-25T15:22:59;100045.59;;;11.53;53.73
28630;BME280;15817;42.130;24.762;2022-11-25T15:25:54;100028.75;;;11.48;54.01
28630;BME280;15817;42.130;24.762;2022-11-25T15:28:22;100033.22;;;11.44;54.31
28630;BME280;15817;42.130;24.762;2022-11-25T15:31:18;100033.22;;;11.44;54.66
28630;BME280;15817;42.130;24.762;2022-11-25T15:33:59;100044.75;;;11.45;54.63
28630;BME280;15817;42.130;24.762;2022-11-25T15:36:31;100024.41;;;11.35;54.73
28630;BME280;15817;42.130;24.762;2022-11-25T15:42:20;100029.78;;;11.30;55.02
28630;BME280;15817;42.130;24.762;2022-11-25T15:45:08;100040.44;;;11.29;55.36
28630;BME280;15817;42.130;24.762;2022-11-25T15:47:43;100034.22;;;11.27;55.47
28630;BME280;15817;42.130;24.762;2022-11-25T15:50:31;100042.22;;;11.27;55.57
28630;BME280;15817;42.130;24.762;2022-11-25T15:53:05;100034.25;;;11.25;55.86
28630;BME280;15817;42.130;24.762;2022-11-25T15:55:37;100048.44;;;11.21;56.47
28630;BME280;15817;42.130;24.762;2022-11-25T15:58:24;100053.81;;;11.16;56.31
28630;BME280;15817;42.130;24.762;2022-11-25T16:03:33;100057.38;;;11.09;56.60
28630;BME280;15817;42.130;24.762;2022-11-25T16:06:01;100063.66;;;11.01;56.75
28630;BME280;15817;42.130;24.762;2022-11-25T16:08:34;100072.53;;;10.98;56.88
28630;BME280;15817;42.130;24.762;2022-11-25T16:11:12;100075.19;;;11.01;56.98
28630;BME280;15817;42.130;24.762;2022-11-25T16:13:47;100061.88;;;10.97;56.92
28630;BME280;15817;42.130;24.762;2022-11-25T16:16:30;100080.50;;;10.97;57.13
28630;BME280;15817;42.130;24.762;2022-11-25T16:19:11;100076.06;;;11.00;57.39
28630;BME280;15817;42.130;24.762;2022-11-25T16:21:57;100072.56;;;10.94;57.26
28630;BME280;15817;42.130;24.762;2022-11-25T16:24:34;100093.81;;;10.98;57.30
28630;BME280;15817;42.130;24.762;2022-11-25T16:33:22;100090.31;;;10.88;58.22
28630;BME280;15817;42.130;24.762;2022-11-25T16:35:55;100091.22;;;10.83;58.02
28630;BME280;15817;42.130;24.762;2022-11-25T16:38:40;100096.56;;;10.83;58.15
28630;BME280;15817;42.130;24.762;2022-11-25T16:41:40;100093.00;;;10.73;59.01